Time;durP1;ratioP1;P1;durP2;ratioP2;P2;SDS_P1;SDS_P2;PMS_P1;PMS_P2;Temp;Humidity;BMP_temperature;BMP_pressure;BME280_temperature;BME280_humidity;BME280_pressure;Samples;Min_cycle;Max_cycle;Signal;HPM_P1;HPM_P2
2023/08/24 00:01:12;;;;;;;;;;;;;;;23.63;56.26;101858.66;5063567;28;20648;-44
2023/08/24 00:03:37;;;;;;;;;;;;;;;23.63;56.07;101855.94;5079010;28;19939;-45
2023/08/24 00:06:03;;;;;;;;;;;;;;;23.63;56.22;101847.78;5063265;28;19952;-46
2023/08/24 00:08:28;;;;;;;;;;;;;;;23.63;56.32;101850.50;5060469;28;19955;-46
2023/08/24 00:10:53;;;;;;;;;;;;;;;23.63;56.33;101847.78;5063549;28;19970;-44
2023/08/24 00:13:18;;;;;;;;;;;;;;;23.61;56.21;101832.69;5063282;28;19921;-43
2023/08/24 00:15:44;;;;;;;;;;;;;;;23.62;56.06;101835.25;5059922;28;19925;-44
2023/08/24 00:18:09;;;;;;;;;;;;;;;23.61;56.19;101832.69;5063432;28;19917;-43
2023/08/24 00:20:35;;;;;;;;;;;;;;;23.61;56.18;101832.69;5063289;28;19924;-44
2023/08/24 00:23:00;;;;;;;;;;;;;;;23.60;56.23;101823.69;5062904;28;19975;-44
2023/08/24 00:25:25;;;;;;;;;;;;;;;23.61;56.21;101827.25;5063824;28;19920;-44
2023/08/24 00:27:52;;;;;;;;;;;;;;;23.61;55.99;101835.41;5061873;28;19921;-45
2023/08/24 00:30:17;;;;;;;;;;;;;;;23.61;56.04;101832.69;5063438;28;19924;-44
2023/08/24 00:32:43;;;;;;;;;;;;;;;23.59;56.11;101819.31;5061336;28;19917;-45
2023/08/24 00:35:10;;;;;;;;;;;;;;;23.59;56.12;101819.31;5062517;28;19925;-43
2023/08/24 00:37:35;;;;;;;;;;;;;;;23.59;56.14;101816.59;5062977;28;20283;-44
2023/08/24 00:40:10;;;;;;;;;;;;;;;23.59;56.06;101819.31;5063536;28;19913;-43
2023/08/24 00:42:41;;;;;;;;;;;;;;;23.59;55.81;101818.47;5062278;28;19952;-44
2023/08/24 00:45:07;;;;;;;;;;;;;;;23.58;56.20;101820.34;5060666;28;19921;-44
2023/08/24 00:47:32;;;;;;;;;;;;;;;23.58;55.93;101814.06;5063375;28;19919;-43
2023/08/24 00:49:59;;;;;;;;;;;;;;;23.58;55.77;101819.50;5063450;28;19948;-44
2023/08/24 00:52:25;;;;;;;;;;;;;;;23.58;55.89;101822.19;5062329;28;19955;-44
2023/08/24 00:54:50;;;;;;;;;;;;;;;23.58;55.81;101808.63;5063868;28;19913;-43
2023/08/24 00:57:16;;;;;;;;;;;;;;;23.57;56.06;101791.47;5099700;28;19935;-43
2023/08/24 00:59:41;;;;;;;;;;;;;;;23.57;55.84;101788.75;5067048;28;19920;-45
2023/08/24 01:02:06;;;;;;;;;;;;;;;23.56;55.87;101780.81;5066633;28;19917;-43
2023/08/24 01:04:31;;;;;;;;;;;;;;;23.56;56.09;101776.22;5099017;28;19917;-43
2023/08/24 01:06:56;;;;;;;;;;;;;;;23.56;55.89;101780.81;5095739;28;20008;-45
2023/08/24 01:09:22;;;;;;;;;;;;;;;23.56;55.88;101781.66;5066685;28;19917;-44
2023/08/24 01:12:16;;;;;;;;;;;;;;;23.55;55.85;101788.09;5066574;28;19928;-43
2023/08/24 01:14:47;;;;;;;;;;;;;;;23.55;55.65;101796.25;5070083;28;19927;-46
2023/08/24 01:17:13;;;;;;;;;;;;;;;23.55;55.72;101807.09;5066651;28;19920;-43
2023/08/24 01:19:39;;;;;;;;;;;;;;;23.54;55.74;101802.72;5066549;28;19947;-47
2023/08/24 01:22:07;;;;;;;;;;;;;;;23.54;55.72;101794.56;5066127;28;19956;-47
2023/08/24 01:24:37;;;;;;;;;;;;;;;23.54;55.68;101796.44;5065679;28;19939;-50
2023/08/24 01:27:02;;;;;;;;;;;;;;;23.53;55.93;101790.13;5096907;28;19939;-49
2023/08/24 01:29:27;;;;;;;;;;;;;;;23.53;55.79;101792.84;5066339;28;19916;-46
2023/08/24 01:31:52;;;;;;;;;;;;;;;23.54;55.84;101785.56;5066569;28;19916;-47
2023/08/24 01:34:17;;;;;;;;;;;;;;;23.53;55.58;101792.84;5064025;28;19923;-49
2023/08/24 01:36:43;;;;;;;;;;;;;;;23.52;55.90;101785.72;5065644;28;19928;-49
2023/08/24 01:39:14;;;;;;;;;;;;;;;23.52;55.64;101776.75;5066086;28;19924;-48
2023/08/24 01:41:42;;;;;;;;;;;;;;;23.52;55.80;101768.59;5098888;28;19923;-50
2023/08/24 01:44:08;;;;;;;;;;;;;;;23.51;55.83;101761.50;5064133;28;19920;-46
2023/08/24 01:46:33;;;;;;;;;;;;;;;23.51;55.67;101762.34;5064375;28;19916;-49
2023/08/24 01:48:58;;;;;;;;;;;;;;;23.51;55.66;101756.91;5064993;28;20324;-49
2023/08/24 01:51:23;;;;;;;;;;;;;;;23.50;55.75;101763.38;5065314;28;20423;-50
2023/08/24 01:53:49;;;;;;;;;;;;;;;23.50;55.69;101779.66;5098198;28;19924;-47
2023/08/24 01:56:15;;;;;;;;;;;;;;;23.50;55.73;101779.66;5066134;28;19913;-49
2023/08/24 01:58:40;;;;;;;;;;;;;;;23.49;55.62;101783.41;5065570;28;19923;-44
2023/08/24 02:01:06;;;;;;;;;;;;;;;23.49;55.76;101783.41;5064663;28;20007;-43
2023/08/24 02:03:31;;;;;;;;;;;;;;;23.49;55.56;101772.53;5065334;28;19917;-44
2023/08/24 02:05:56;;;;;;;;;;;;;;;23.49;55.70;101777.97;5065355;28;19934;-45
2023/08/24 02:08:22;;;;;;;;;;;;;;;23.49;55.59;101777.09;5065420;28;19913;-43
2023/08/24 02:10:47;;;;;;;;;;;;;;;23.48;55.64;101778.97;5065244;28;19920;-43
2023/08/24 02:13:12;;;;;;;;;;;;;;;23.49;55.46;101777.09;5065553;28;19920;-43
2023/08/24 02:15:39;;;;;;;;;;;;;;;23.47;55.50;101784.59;5065411;28;19916;-45
2023/08/24 02:18:04;;;;;;;;;;;;;;;23.47;55.65;101785.44;5064804;28;19925;-48
2023/08/24 02:20:29;;;;;;;;;;;;;;;23.47;55.70;101795.44;5065657;28;19913;-45
2023/08/24 02:22:54;;;;;;;;;;;;;;;23.47;55.46;101798.16;5064387;28;19964;-43
2023/08/24 02:25:20;;;;;;;;;;;;;;;23.47;55.77;101799.00;5065383;28;19913;-47
2023/08/24 02:27:45;;;;;;;;;;;;;;;23.46;55.54;101791.88;5065162;28;19923;-45
2023/08/24 02:30:10;;;;;;;;;;;;;;;23.47;55.46;101788.16;5064718;28;19917;-46
2023/08/24 02:32:36;;;;;;;;;;;;;;;23.45;55.71;101796.47;5065070;28;19970;-48
2023/08/24 02:35:01;;;;;;;;;;;;;;;23.44;55.71;101786.63;5064870;28;19956;-45
2023/08/24 02:37:27;;;;;;;;;;;;;;;23.45;55.45;101790.22;5064706;28;19920;-48
2023/08/24 02:39:52;;;;;;;;;;;;;;;23.44;55.64;101785.78;5064571;28;19917;-47
2023/08/24 02:42:17;;;;;;;;;;;;;;;23.44;55.64;101785.78;5065145;28;19940;-44
2023/08/24 02:44:42;;;;;;;;;;;;;;;23.43;55.38;101786.81;5064788;28;19917;-47
2023/08/24 02:47:08;;;;;;;;;;;;;;;23.43;55.49;101786.81;5065048;28;19962;-45
2023/08/24 02:49:33;;;;;;;;;;;;;;;23.44;55.35;101777.63;5064717;28;19975;-49
2023/08/24 02:51:58;;;;;;;;;;;;;;;23.42;55.54;101761.53;5064546;28;19917;-45
2023/08/24 02:54:23;;;;;;;;;;;;;;;23.42;55.51;101764.25;5064507;28;20541;-45
2023/08/24 02:56:48;;;;;;;;;;;;;;;23.43;55.44;101770.53;5064385;28;19986;-43
2023/08/24 02:59:13;;;;;;;;;;;;;;;23.41;55.77;101756.31;5064494;28;20309;-47
2023/08/24 03:01:41;;;;;;;;;;;;;;;23.42;55.56;101749.84;5065149;28;19917;-48
2023/08/24 03:04:06;;;;;;;;;;;;;;;23.41;55.42;101737.31;5063420;28;19939;-45
2023/08/24 03:06:31;;;;;;;;;;;;;;;23.40;55.48;101717.44;5064186;28;19916;-48
2023/08/24 03:08:56;;;;;;;;;;;;;;;23.40;55.51;101712.00;5064318;28;19946;-46
2023/08/24 03:11:22;;;;;;;;;;;;;;;23.40;55.38;101703.88;5064768;28;20381;-46
2023/08/24 03:13:47;;;;;;;;;;;;;;;23.40;55.43;101689.44;5063971;28;19917;-47
2023/08/24 03:16:12;;;;;;;;;;;;;;;23.40;55.51;101693.00;5064016;28;19913;-47
2023/08/24 03:18:37;;;;;;;;;;;;;;;23.40;55.44;101694.88;5063684;28;19978;-49
2023/08/24 03:21:02;;;;;;;;;;;;;;;23.39;55.57;101691.31;5064695;28;19958;-44
2023/08/24 03:23:28;;;;;;;;;;;;;;;23.40;55.42;101694.88;5061564;28;19921;-45
2023/08/24 03:25:53;;;;;;;;;;;;;;;23.39;55.46;101693.19;5064325;28;19963;-46
2023/08/24 03:28:18;;;;;;;;;;;;;;;23.38;55.54;101705.94;5063763;28;19924;-48
2023/08/24 03:30:48;;;;;;;;;;;;;;;23.38;55.43;101716.78;5063931;28;19913;-48
2023/08/24 03:33:13;;;;;;;;;;;;;;;23.38;55.52;101703.22;5062400;28;19923;-47
2023/08/24 03:35:39;;;;;;;;;;;;;;;23.37;55.46;101696.09;5063916;28;19948;-46
2023/08/24 03:38:04;;;;;;;;;;;;;;;23.37;55.48;101693.38;5060078;28;19920;-47
2023/08/24 03:40:30;;;;;;;;;;;;;;;23.37;55.35;101703.41;5064046;28;19964;-47
2023/08/24 03:42:55;;;;;;;;;;;;;;;23.37;55.44;101703.41;5063871;28;19920;-48
2023/08/24 03:45:21;;;;;;;;;;;;;;;23.37;55.37;101706.97;5064069;28;19916;-43
2023/08/24 03:47:46;;;;;;;;;;;;;;;23.37;55.51;101711.53;5063937;28;20420;-47
2023/08/24 03:50:11;;;;;;;;;;;;;;;23.36;55.38;101710.69;5062302;28;19959;-48
2023/08/24 03:52:36;;;;;;;;;;;;;;;23.35;55.56;101703.56;5063456;28;19916;-44
2023/08/24 03:55:01;;;;;;;;;;;;;;;23.35;55.42;101686.44;5070264;28;19928;-49
2023/08/24 03:57:27;;;;;;;;;;;;;;;23.35;55.52;101679.13;5064042;28;19924;-47
2023/08/24 03:59:53;;;;;;;;;;;;;;;23.35;55.33;101673.72;5062871;28;19924;-46
2023/08/24 04:02:18;;;;;;;;;;;;;;;23.35;55.43;101662.84;5064269;28;19913;-48
2023/08/24 04:04:43;;;;;;;;;;;;;;;23.36;55.65;101669.13;5063109;28;19923;-45
2023/08/24 04:07:09;;;;;;;;;;;;;;;23.35;55.39;101671.00;5063773;28;19919;-46
2023/08/24 04:09:34;;;;;;;;;;;;;;;23.35;55.66;101662.84;5063011;28;19920;-48
2023/08/24 04:11:59;;;;;;;;;;;;;;;23.35;55.40;101662.00;5064096;28;19913;-48
2023/08/24 04:14:24;;;;;;;;;;;;;;;23.35;55.78;101671.00;5063266;28;19939;-45
2023/08/24 04:16:49;;;;;;;;;;;;;;;23.35;55.72;101675.59;5063288;28;19931;-45
2023/08/24 04:19:14;;;;;;;;;;;;;;;23.34;56.05;101680.16;5063374;28;19913;-46
2023/08/24 04:21:40;;;;;;;;;;;;;;;23.34;55.78;101669.31;5063169;28;20023;-46
2023/08/24 04:24:05;;;;;;;;;;;;;;;23.35;55.90;101665.56;5062920;28;19927;-49
2023/08/24 04:26:30;;;;;;;;;;;;;;;23.34;55.99;101672.03;5063313;28;19924;-45
2023/08/24 04:28:56;;;;;;;;;;;;;;;23.35;56.00;101681.00;5063650;28;20374;-46
2023/08/24 04:31:21;;;;;;;;;;;;;;;23.34;56.02;101677.47;5067053;28;19917;-46
2023/08/24 04:33:46;;;;;;;;;;;;;;;23.34;56.24;101682.03;5066878;28;19917;-47
2023/08/24 04:36:11;;;;;;;;;;;;;;;23.34;56.15;101682.88;5067379;28;19972;-49
2023/08/24 04:38:36;;;;;;;;;;;;;;;23.34;56.27;101684.75;5066648;28;19944;-47
2023/08/24 04:41:04;;;;;;;;;;;;;;;23.35;56.05;101687.28;5067595;28;19917;-45
2023/08/24 04:43:29;;;;;;;;;;;;;;;23.34;56.24;101679.34;5066149;28;20070;-46
2023/08/24 04:45:55;;;;;;;;;;;;;;;23.34;56.23;101684.75;5067752;28;19932;-45
2023/08/24 04:48:20;;;;;;;;;;;;;;;23.34;56.31;101687.47;5067143;28;19921;-46
2023/08/24 04:50:46;;;;;;;;;;;;;;;23.34;56.43;101676.63;5067016;28;19923;-47
2023/08/24 04:53:14;;;;;;;;;;;;;;;23.34;56.61;101676.63;5063934;28;19960;-47
2023/08/24 04:55:40;;;;;;;;;;;;;;;23.33;56.65;101678.50;5066440;28;19916;-46
2023/08/24 04:58:06;;;;;;;;;;;;;;;23.34;56.65;101668.47;5065629;28;19928;-45
2023/08/24 05:00:33;;;;;;;;;;;;;;;23.34;56.78;101674.75;5067395;28;19952;-47
2023/08/24 05:02:58;;;;;;;;;;;;;;;23.33;56.49;101664.91;5065341;28;20370;-48
2023/08/24 05:05:23;;;;;;;;;;;;;;;23.34;56.69;101668.47;5066300;28;19919;-46
2023/08/24 05:07:48;;;;;;;;;;;;;;;23.33;56.90;101666.78;5060144;28;20577;-48
2023/08/24 05:10:14;;;;;;;;;;;;;;;23.33;56.67;101672.22;5093183;28;19917;-50
2023/08/24 05:12:39;;;;;;;;;;;;;;;23.33;56.84;101669.50;5065449;28;19949;-47
2023/08/24 05:15:05;;;;;;;;;;;;;;;23.33;56.57;101674.94;5066293;28;19913;-47
2023/08/24 05:17:31;;;;;;;;;;;;;;;23.33;56.94;101677.66;5066732;28;19962;-47
2023/08/24 05:19:56;;;;;;;;;;;;;;;23.33;56.72;101666.78;5067074;28;20121;-47
2023/08/24 05:22:22;;;;;;;;;;;;;;;23.32;56.95;101662.38;5066273;28;20580;-47
2023/08/24 05:24:47;;;;;;;;;;;;;;;23.31;56.61;101666.94;5066417;28;19921;-46
2023/08/24 05:27:12;;;;;;;;;;;;;;;23.31;56.77;101664.25;5066644;28;19935;-46
2023/08/24 05:29:37;;;;;;;;;;;;;;;23.32;56.80;101667.78;5066719;28;19920;-48
2023/08/24 05:32:03;;;;;;;;;;;;;;;23.31;56.73;101663.41;5066090;28;19997;-45
2023/08/24 05:34:28;;;;;;;;;;;;;;;23.31;56.86;101666.94;5065807;28;19913;-47
2023/08/24 05:36:53;;;;;;;;;;;;;;;23.31;56.80;101666.13;5066044;28;19916;-46
2023/08/24 05:39:18;;;;;;;;;;;;;;;23.30;56.64;101662.56;5066493;28;19983;-50
2023/08/24 05:41:43;;;;;;;;;;;;;;;23.30;56.69;101653.56;5065838;28;19940;-45
2023/08/24 05:44:09;;;;;;;;;;;;;;;23.30;56.55;101656.28;5066242;28;19940;-47
2023/08/24 05:46:34;;;;;;;;;;;;;;;23.30;56.34;101654.41;5066638;28;19990;-46
2023/08/24 05:48:59;;;;;;;;;;;;;;;23.29;56.32;101655.44;5066089;28;19955;-48
2023/08/24 05:51:24;;;;;;;;;;;;;;;23.29;56.44;101655.44;5066279;28;20003;-48
2023/08/24 05:53:55;;;;;;;;;;;;;;;23.30;56.50;101645.44;5065830;28;19916;-46
2023/08/24 05:56:20;;;;;;;;;;;;;;;23.29;56.50;101641.88;5066323;28;19960;-48
2023/08/24 05:58:45;;;;;;;;;;;;;;;23.28;56.58;101632.06;5065233;28;19916;-47
2023/08/24 06:01:10;;;;;;;;;;;;;;;23.28;56.27;101626.63;5065905;28;19917;-48
2023/08/24 06:03:36;;;;;;;;;;;;;;;23.28;56.14;101632.06;5065710;28;19921;-48
2023/08/24 06:06:02;;;;;;;;;;;;;;;23.28;56.37;101620.34;5065882;28;19952;-46
2023/08/24 06:08:28;;;;;;;;;;;;;;;23.27;56.44;101616.78;5065775;28;19917;-49
2023/08/24 06:10:53;;;;;;;;;;;;;;;23.28;56.34;101617.63;5065804;28;19943;-45
2023/08/24 06:13:18;;;;;;;;;;;;;;;23.28;56.15;101617.63;5065681;28;19912;-45
2023/08/24 06:15:43;;;;;;;;;;;;;;;23.27;56.07;101616.78;5066160;28;19997;-46
2023/08/24 06:18:09;;;;;;;;;;;;;;;23.27;56.27;101608.66;5064189;28;19924;-49
2023/08/24 06:20:34;;;;;;;;;;;;;;;23.28;56.12;101601.34;5066013;28;19939;-48
2023/08/24 06:22:59;;;;;;;;;;;;;;;23.27;56.30;101597.78;5064663;28;19923;-44
2023/08/24 06:25:24;;;;;;;;;;;;;;;23.27;56.25;101605.94;5065916;28;19944;-44
2023/08/24 06:27:50;;;;;;;;;;;;;;;23.27;56.10;101600.50;5065007;28;19923;-46
2023/08/24 06:30:15;;;;;;;;;;;;;;;23.27;56.13;101602.38;5065677;28;19917;-47
2023/08/24 06:32:40;;;;;;;;;;;;;;;22.97;56.12;101549.88;5064928;28;19986;-48
2023/08/24 06:35:06;;;;;;;;;;;;;;;23.27;56.09;101600.50;5063520;28;19924;-47
2023/08/24 06:37:31;;;;;;;;;;;;;;;23.27;56.17;101591.53;5097250;28;19924;-45
2023/08/24 06:39:56;;;;;;;;;;;;;;;23.27;55.98;101584.22;5065466;28;19923;-49
2023/08/24 06:42:21;;;;;;;;;;;;;;;23.27;56.17;101577.97;5065533;28;19917;-47
2023/08/24 06:44:49;;;;;;;;;;;;;;;23.26;55.89;101571.69;5064813;28;20004;-47
2023/08/24 06:47:15;;;;;;;;;;;;;;;23.26;56.07;101570.84;5065518;28;20003;-48
2023/08/24 06:49:40;;;;;;;;;;;;;;;23.27;56.04;101569.81;5064898;28;19917;-45
2023/08/24 06:52:05;;;;;;;;;;;;;;;23.26;56.04;101573.56;5064290;28;19912;-48
2023/08/24 06:54:30;;;;;;;;;;;;;;;23.27;55.94;101573.38;5064587;28;19916;-49
2023/08/24 06:56:56;;;;;;;;;;;;;;;23.27;56.05;101564.41;5064661;28;19936;-49
2023/08/24 06:59:21;;;;;;;;;;;;;;;23.26;55.96;101563.56;5063974;28;19924;-46
2023/08/24 07:01:47;;;;;;;;;;;;;;;23.26;55.79;101565.44;5064833;28;19921;-48
2023/08/24 07:04:12;;;;;;;;;;;;;;;23.27;56.14;101564.41;5063937;28;19917;-45
2023/08/24 07:06:37;;;;;;;;;;;;;;;23.26;55.95;101560.00;5063451;28;19917;-47
2023/08/24 07:09:06;;;;;;;;;;;;;;;23.26;56.16;101557.28;5063952;28;20385;-48
2023/08/24 07:11:31;;;;;;;;;;;;;;;23.26;55.99;101560.84;5063353;28;19995;-46
2023/08/24 07:13:56;;;;;;;;;;;;;;;23.26;56.08;101555.41;5064302;28;19924;-44
2023/08/24 07:16:22;;;;;;;;;;;;;;;23.26;55.85;101543.72;5064733;28;19917;-44
2023/08/24 07:18:47;;;;;;;;;;;;;;;23.25;55.95;101534.75;5064623;28;19912;-47
2023/08/24 07:21:14;;;;;;;;;;;;;;;23.26;55.93;101536.41;5064393;28;19923;-46
2023/08/24 07:23:39;;;;;;;;;;;;;;;23.27;55.79;101531.84;5063555;28;19921;-44
2023/08/24 07:26:05;;;;;;;;;;;;;;;23.27;56.03;101540.81;5064638;28;20027;-44
2023/08/24 07:28:30;;;;;;;;;;;;;;;23.26;55.80;101539.13;5063606;28;19963;-44
2023/08/24 07:30:55;;;;;;;;;;;;;;;23.27;56.01;101542.69;5064647;28;19913;-48
2023/08/24 07:33:21;;;;;;;;;;;;;;;23.26;55.84;101541.84;5064330;28;20013;-48
2023/08/24 07:35:46;;;;;;;;;;;;;;;23.27;55.83;101537.25;5064086;28;19917;-44
2023/08/24 07:38:12;;;;;;;;;;;;;;;23.27;55.84;101529.97;5063044;28;19924;-44
2023/08/24 07:40:37;;;;;;;;;;;;;;;23.27;55.80;101520.97;5064625;28;20443;-44
2023/08/24 07:43:02;;;;;;;;;;;;;;;23.27;55.92;101515.56;5064129;28;20434;-47
2023/08/24 07:45:27;;;;;;;;;;;;;;;23.28;55.96;101525.38;5063848;28;20408;-44
2023/08/24 07:47:53;;;;;;;;;;;;;;;23.27;55.91;101523.69;5096063;28;19916;-44
2023/08/24 07:50:18;;;;;;;;;;;;;;;23.29;55.82;101527.09;5064125;28;19913;-45
2023/08/24 07:52:44;;;;;;;;;;;;;;;23.27;55.92;101535.38;5063364;28;19924;-44
2023/08/24 07:55:09;;;;;;;;;;;;;;;23.27;55.84;101540.81;5064116;28;19912;-45
2023/08/24 07:57:35;;;;;;;;;;;;;;;23.27;55.82;101539.97;5095969;28;19928;-43
2023/08/24 08:00:00;;;;;;;;;;;;;;;23.27;55.85;101542.69;5063820;28;20381;-44
2023/08/24 08:02:26;;;;;;;;;;;;;;;23.27;55.84;101550.81;5063762;28;19919;-44
2023/08/24 08:04:51;;;;;;;;;;;;;;;23.26;55.76;101549.97;5063126;28;19959;-45
2023/08/24 08:07:17;;;;;;;;;;;;;;;23.27;55.77;101548.94;5062896;28;20286;-45
2023/08/24 08:09:42;;;;;;;;;;;;;;;23.27;55.82;101537.25;5063904;28;19924;-44
2023/08/24 08:12:07;;;;;;;;;;;;;;;23.28;55.72;101544.38;5063942;28;19916;-43
2023/08/24 08:14:32;;;;;;;;;;;;;;;23.26;55.82;101533.72;5063309;28;19980;-45
2023/08/24 08:16:58;;;;;;;;;;;;;;;23.26;55.64;101533.72;5063238;28;19916;-44
2023/08/24 08:19:25;;;;;;;;;;;;;;;23.26;55.74;101520.16;5063541;28;19924;-44
2023/08/24 08:21:50;;;;;;;;;;;;;;;23.27;55.82;101526.41;5063969;28;19924;-46
2023/08/24 08:24:15;;;;;;;;;;;;;;;23.26;55.67;101525.56;5062962;28;19921;-44
2023/08/24 08:26:40;;;;;;;;;;;;;;;23.26;55.64;101522.00;5063614;28;19913;-44
2023/08/24 08:29:06;;;;;;;;;;;;;;;23.25;55.89;101526.59;5063271;28;19932;-45
2023/08/24 08:31:31;;;;;;;;;;;;;;;23.26;55.66;101528.28;5063712;28;19917;-43
2023/08/24 08:33:56;;;;;;;;;;;;;;;23.27;55.82;101515.56;5063450;28;20266;-44
2023/08/24 08:36:21;;;;;;;;;;;;;;;23.27;55.94;101516.41;5062690;28;19921;-44
2023/08/24 08:38:46;;;;;;;;;;;;;;;23.26;55.98;101519.31;5063095;28;20011;-43
2023/08/24 08:41:12;;;;;;;;;;;;;;;23.27;55.66;101510.97;5063710;28;19940;-45
2023/08/24 08:43:37;;;;;;;;;;;;;;;23.26;55.84;101511.16;5061973;28;19917;-43
2023/08/24 08:46:03;;;;;;;;;;;;;;;23.26;55.59;101503.88;5095887;28;20366;-44
2023/08/24 08:48:28;;;;;;;;;;;;;;;23.27;55.70;101496.56;5062061;28;19913;-44
2023/08/24 08:50:55;;;;;;;;;;;;;;;23.27;55.80;101491.13;5062594;28;19920;-43
2023/08/24 08:53:21;;;;;;;;;;;;;;;23.27;55.83;101494.69;5062462;28;19913;-42
2023/08/24 08:55:46;;;;;;;;;;;;;;;23.27;55.75;101489.25;5063368;28;19992;-44
2023/08/24 08:58:11;;;;;;;;;;;;;;;23.27;56.01;101480.28;5061559;28;19928;-43
2023/08/24 09:00:36;;;;;;;;;;;;;;;23.28;56.02;101479.25;5062009;28;19920;-43
2023/08/24 09:03:02;;;;;;;;;;;;;;;23.27;55.94;101470.28;5095102;28;19917;-44
2023/08/24 09:05:27;;;;;;;;;;;;;;;23.28;56.26;101466.56;5062792;28;19912;-42
2023/08/24 09:07:53;;;;;;;;;;;;;;;23.29;56.24;101470.94;5094679;28;20226;-43
2023/08/24 09:10:18;;;;;;;;;;;;;;;23.28;56.00;101461.13;5095608;28;19913;-43
2023/08/24 09:12:44;;;;;;;;;;;;;;;23.29;56.06;101461.97;5062940;28;20270;-43
2023/08/24 09:15:09;;;;;;;;;;;;;;;23.29;56.18;101462.81;5063137;28;19913;-45
2023/08/24 09:17:34;;;;;;;;;;;;;;;23.30;56.31;101458.22;5066262;28;19947;-43
2023/08/24 09:20:00;;;;;;;;;;;;;;;23.31;56.36;101455.31;5066836;28;19960;-45
2023/08/24 09:22:25;;;;;;;;;;;;;;;23.32;56.08;101458.88;5065936;28;19913;-44
2023/08/24 09:24:51;;;;;;;;;;;;;;;23.33;56.22;101464.13;5066297;28;19929;-44
2023/08/24 09:27:19;;;;;;;;;;;;;;;23.33;56.42;101460.56;5066422;28;19940;-43
2023/08/24 09:29:51;;;;;;;;;;;;;;;23.33;56.17;101449.72;5066059;28;19971;-42
2023/08/24 09:32:29;;;;;;;;;;;;;;;23.34;56.31;101444.09;5066953;28;19912;-44
2023/08/24 09:34:55;;;;;;;;;;;;;;;23.35;56.24;101434.91;5064793;28;19956;-45
2023/08/24 09:37:20;;;;;;;;;;;;;;;23.36;56.17;101423.06;5066161;28;19928;-43
2023/08/24 09:39:45;;;;;;;;;;;;;;;23.38;56.00;101409.28;5066294;28;19976;-44
2023/08/24 09:42:11;;;;;;;;;;;;;;;23.38;56.14;101399.28;5066456;28;19917;-44
2023/08/24 09:44:36;;;;;;;;;;;;;;;23.40;56.23;101401.78;5064506;28;20016;-43
2023/08/24 09:47:01;;;;;;;;;;;;;;;23.41;56.30;101398.06;5066732;28;19920;-47
2023/08/24 09:49:27;;;;;;;;;;;;;;;23.41;56.22;101401.63;5065928;28;20374;-43
2023/08/24 09:51:53;;;;;;;;;;;;;;;23.42;56.05;101397.88;5097829;28;19948;-48
2023/08/24 09:54:18;;;;;;;;;;;;;;;23.42;56.18;101384.31;5065366;28;20366;-47
2023/08/24 09:56:44;;;;;;;;;;;;;;;23.44;56.40;101381.41;5098234;28;19924;-48
2023/08/24 09:59:18;;;;;;;;;;;;;;;23.46;56.13;101379.34;5098060;28;19928;-45
2023/08/24 10:01:44;;;;;;;;;;;;;;;23.47;56.27;101377.47;5066153;28;19923;-44
2023/08/24 10:04:11;;;;;;;;;;;;;;;23.47;56.14;101377.47;5065531;28;19959;-44
2023/08/24 10:06:36;;;;;;;;;;;;;;;23.47;56.25;101364.75;5065831;28;19976;-45
2023/08/24 10:09:05;;;;;;;;;;;;;;;23.49;56.47;101356.41;5064150;28;19920;-45
2023/08/24 10:11:30;;;;;;;;;;;;;;;23.49;56.25;101357.28;5097097;28;19923;-45
2023/08/24 10:14:14;;;;;;;;;;;;;;;23.50;56.31;101353.53;5065429;28;19913;-44
2023/08/24 10:16:40;;;;;;;;;;;;;;;23.52;56.16;101347.91;5062644;28;20016;-43
2023/08/24 10:19:05;;;;;;;;;;;;;;;23.53;56.21;101344.97;5065639;28;19913;-47
2023/08/24 10:21:30;;;;;;;;;;;;;;;23.55;56.14;101352.97;5065912;28;19947;-46
2023/08/24 10:23:59;;;;;;;;;;;;;;;23.55;56.32;101342.94;5097359;28;19973;-44
2023/08/24 10:26:24;;;;;;;;;;;;;;;23.57;56.37;101353.59;5062870;28;20015;-48
2023/08/24 10:28:50;;;;;;;;;;;;;;;23.58;56.25;101363.44;5095549;28;19917;-46
2023/08/24 10:31:15;;;;;;;;;;;;;;;23.60;56.38;101361.38;5064311;28;19917;-47
2023/08/24 10:33:41;;;;;;;;;;;;;;;23.60;56.48;101356.78;5065138;28;19951;-44
2023/08/24 10:36:06;;;;;;;;;;;;;;;23.61;56.59;101357.63;5063712;28;20145;-47
2023/08/24 10:38:34;;;;;;;;;;;;;;;23.62;56.56;101354.72;5064096;28;20389;-48
2023/08/24 10:41:06;;;;;;;;;;;;;;;23.63;56.61;101352.84;5065441;28;19913;-45
2023/08/24 10:43:38;;;;;;;;;;;;;;;23.63;56.60;101348.28;5061742;28;19916;-47
2023/08/24 10:46:04;;;;;;;;;;;;;;;23.63;56.59;101342.84;5064745;28;19939;-47
2023/08/24 10:48:41;;;;;;;;;;;;;;;23.64;56.51;101333.66;5064623;28;19917;-46
2023/08/24 10:53:40;;;;;;;;;;;;;;;23.66;56.50;101318.06;5064376;28;19939;-45
2023/08/24 10:56:15;;;;;;;;;;;;;;;23.69;56.55;101304.09;5065040;28;19917;-46
2023/08/24 10:58:41;;;;;;;;;;;;;;;23.69;56.67;101317.66;5063137;28;19927;-45
2023/08/24 11:01:06;;;;;;;;;;;;;;;23.71;56.45;101313.94;5064933;28;20462;-44
2023/08/24 11:03:32;;;;;;;;;;;;;;;23.70;56.58;101313.06;5064350;28;19935;-49
2023/08/24 11:05:57;;;;;;;;;;;;;;;23.68;56.50;101313.28;5064099;28;19924;-47
2023/08/24 11:08:23;;;;;;;;;;;;;;;23.67;56.57;101311.59;5064273;28;19916;-45
2023/08/24 11:10:48;;;;;;;;;;;;;;;23.65;56.64;101313.66;5097128;28;19920;-46
2023/08/24 11:13:19;;;;;;;;;;;;;;;23.65;56.78;101320.94;5064541;28;19913;-46
2023/08/24 11:15:45;;;;;;;;;;;;;;;23.65;56.67;101329.09;5064242;28;19919;-46
2023/08/24 11:18:19;;;;;;;;;;;;;;;23.65;56.71;101329.94;5064318;28;20039;-47
2023/08/24 11:20:45;;;;;;;;;;;;;;;23.64;56.85;101340.97;5064553;28;19912;-46
2023/08/24 11:23:10;;;;;;;;;;;;;;;23.62;56.88;101338.44;5063161;28;19966;-48
2023/08/24 11:25:35;;;;;;;;;;;;;;;23.63;56.92;101342.00;5064413;28;19948;-49
2023/08/24 11:28:01;;;;;;;;;;;;;;;23.62;56.91;101343.88;5064139;28;19916;-48
2023/08/24 11:30:26;;;;;;;;;;;;;;;23.62;56.78;101338.44;5096643;28;19917;-49
2023/08/24 11:32:52;;;;;;;;;;;;;;;23.61;56.96;101323.16;5062519;28;19913;-47
2023/08/24 11:35:18;;;;;;;;;;;;;;;23.61;56.94;101341.34;5063797;28;19956;-45
2023/08/24 11:37:43;;;;;;;;;;;;;;;23.62;56.81;101338.44;5062450;28;19917;-46
2023/08/24 11:40:16;;;;;;;;;;;;;;;23.61;56.88;101327.75;5063831;28;19917;-45
2023/08/24 11:42:41;;;;;;;;;;;;;;;23.62;57.00;101326.75;5062479;28;19913;-49
2023/08/24 11:45:12;;;;;;;;;;;;;;;23.63;56.95;101328.44;5063911;28;20638;-43
2023/08/24 11:47:37;;;;;;;;;;;;;;;23.56;56.92;101327.50;5069061;28;19921;-43
2023/08/24 11:50:03;;;;;;;;;;;;;;;23.60;57.14;101335.06;5095913;28;20015;-48
2023/08/24 11:52:28;;;;;;;;;;;;;;;23.60;56.89;101326.91;5063709;28;19996;-48
2023/08/24 11:54:53;;;;;;;;;;;;;;;23.62;57.11;101311.31;5096429;28;20001;-49
2023/08/24 11:57:18;;;;;;;;;;;;;;;23.62;56.90;101297.72;5063767;28;19921;-45
2023/08/24 11:59:44;;;;;;;;;;;;;;;23.64;57.05;101300.25;5063919;28;19913;-48
2023/08/24 12:02:09;;;;;;;;;;;;;;;23.65;56.94;101310.09;5079189;28;20401;-48
2023/08/24 12:04:39;;;;;;;;;;;;;;;23.65;57.06;101308.22;5062183;28;19913;-46
2023/08/24 12:07:11;;;;;;;;;;;;;;;23.66;56.87;101290.91;5063989;28;20004;-45
2023/08/24 12:09:37;;;;;;;;;;;;;;;23.67;57.09;101280.91;5061573;28;20459;-47
2023/08/24 12:12:02;;;;;;;;;;;;;;;23.69;56.94;101273.38;5096203;28;19960;-46
2023/08/24 12:14:29;;;;;;;;;;;;;;;23.68;56.82;101271.72;5063422;28;19919;-47
2023/08/24 12:16:54;;;;;;;;;;;;;;;23.70;56.95;101269.63;5095911;28;19959;-46
2023/08/24 12:19:21;;;;;;;;;;;;;;;23.71;56.81;101256.94;5063083;28;20381;-48
2023/08/24 12:21:49;;;;;;;;;;;;;;;23.69;56.88;101249.78;5062922;28;20373;-46
2023/08/24 12:24:14;;;;;;;;;;;;;;;23.71;56.82;101237.94;5061716;28;19921;-48
2023/08/24 12:26:39;;;;;;;;;;;;;;;23.72;56.85;101234.16;5063136;28;19964;-49
2023/08/24 12:29:06;;;;;;;;;;;;;;;23.73;56.87;101244.00;5063259;28;19927;-48
2023/08/24 12:31:31;;;;;;;;;;;;;;;23.74;57.05;101240.22;5063986;28;19909;-44